createdAt,value
2017-07-11T00:00:57.218Z,0
2017-07-11T00:02:06.133Z,0
2017-07-11T00:03:15.058Z,0
2017-07-11T00:04:23.980Z,0
2017-07-11T00:05:32.895Z,0
2017-07-11T00:06:41.811Z,0
2017-07-11T00:07:50.732Z,0
2017-07-11T00:08:59.732Z,0
2017-07-11T00:10:08.646Z,0
2017-07-11T00:11:17.563Z,0
2017-07-11T00:12:26.578Z,0
2017-07-11T00:13:35.500Z,0
2017-07-11T00:14:44.417Z,0
2017-07-11T00:15:53.336Z,0
2017-07-11T00:17:02.260Z,0
2017-07-11T00:18:11.189Z,0
2017-07-11T00:19:20.108Z,0
2017-07-11T00:20:29.024Z,0
2017-07-11T00:21:37.939Z,0
2017-07-11T00:22:46.857Z,0
2017-07-11T00:23:55.778Z,0
2017-07-11T00:25:04.699Z,0
2017-07-11T00:26:13.619Z,0
2017-07-11T00:27:22.531Z,0
2017-07-11T00:28:31.452Z,0
2017-07-11T00:29:40.366Z,0
2017-07-11T00:30:49.281Z,0
2017-07-11T00:31:58.200Z,0
2017-07-11T00:33:07.124Z,0
2017-07-11T00:34:16.046Z,0
2017-07-11T00:35:24.969Z,0
2017-07-11T00:36:33.892Z,0
2017-07-11T00:37:43.138Z,0
2017-07-11T00:38:52.058Z,0
2017-07-11T00:40:00.980Z,0
2017-07-11T00:41:09.898Z,0
2017-07-11T00:42:18.821Z,0
2017-07-11T00:43:27.736Z,0
2017-07-11T00:44:36.654Z,0
2017-07-11T00:45:45.584Z,0
2017-07-11T00:46:54.503Z,0
2017-07-11T00:48:03.427Z,0
2017-07-11T00:49:12.348Z,0
2017-07-11T00:50:21.264Z,0
2017-07-11T00:51:30.185Z,0
2017-07-11T00:52:39.114Z,0
2017-07-11T00:53:48.041Z,0
2017-07-11T00:54:56.956Z,0
2017-07-11T00:56:05.876Z,0
2017-07-11T00:57:14.795Z,0
2017-07-11T00:58:23.730Z,0
2017-07-11T00:59:32.646Z,0
2017-07-11T01:00:41.564Z,0
2017-07-11T01:01:50.476Z,0
2017-07-11T01:02:59.392Z,0
2017-07-11T01:04:08.304Z,0
2017-07-11T01:05:17.223Z,0
2017-07-11T01:06:26.140Z,0
2017-07-11T01:07:35.060Z,0
2017-07-11T01:08:43.984Z,0
2017-07-11T01:09:52.901Z,0
2017-07-11T01:11:01.821Z,0
2017-07-11T01:12:10.748Z,0
2017-07-11T01:13:19.670Z,0
2017-07-11T01:14:28.592Z,0
2017-07-11T01:15:37.506Z,0
2017-07-11T01:16:46.418Z,0
2017-07-11T01:17:55.337Z,0
2017-07-11T01:19:04.260Z,0
2017-07-11T01:20:13.174Z,0
2017-07-11T01:21:22.090Z,0
2017-07-11T01:22:31.014Z,0
2017-07-11T01:23:40.020Z,0
2017-07-11T01:24:48.937Z,0
2017-07-11T01:25:57.850Z,0
2017-07-11T01:27:06.768Z,0
2017-07-11T01:28:15.692Z,0
2017-07-11T01:29:24.611Z,0
2017-07-11T01:30:33.530Z,0
2017-07-11T01:31:42.450Z,0
2017-07-11T01:32:51.375Z,0
2017-07-11T01:34:00.290Z,0
2017-07-11T01:35:09.206Z,0
2017-07-11T01:36:18.135Z,0
2017-07-11T01:37:27.390Z,0
2017-07-11T01:38:36.314Z,0
2017-07-11T01:39:45.232Z,0
2017-07-11T01:40:54.141Z,0
2017-07-11T01:42:03.395Z,0
2017-07-11T01:43:12.313Z,0
2017-07-11T01:44:21.223Z,0
2017-07-11T01:45:30.139Z,0
2017-07-11T01:46:39.051Z,0
2017-07-11T01:47:47.975Z,0
2017-07-11T01:48:56.897Z,0
2017-07-11T01:50:05.821Z,0
2017-07-11T01:51:14.746Z,0
2017-07-11T01:52:23.664Z,0
2017-07-11T01:53:32.584Z,0
2017-07-11T01:54:41.508Z,0
2017-07-11T01:55:50.433Z,0
2017-07-11T01:56:59.351Z,0
2017-07-11T01:58:08.262Z,0
2017-07-11T01:59:17.178Z,0
2017-07-11T02:00:26.098Z,0
2017-07-11T02:01:35.024Z,0
2017-07-11T02:02:43.948Z,0
2017-07-11T02:03:52.860Z,0
2017-07-11T02:05:01.860Z,0
2017-07-11T02:06:10.780Z,0
2017-07-11T02:07:19.705Z,0
2017-07-11T02:08:29.358Z,0
2017-07-11T02:09:38.283Z,0
2017-07-11T02:10:47.202Z,0
2017-07-11T02:11:56.216Z,0
2017-07-11T02:13:05.133Z,0
2017-07-11T02:14:14.057Z,0
2017-07-11T02:15:22.967Z,0
2017-07-11T02:16:31.886Z,0
2017-07-11T02:17:40.802Z,0
2017-07-11T02:18:49.728Z,0
2017-07-11T02:19:58.646Z,0
2017-07-11T02:21:07.568Z,0
2017-07-11T02:22:16.490Z,0
2017-07-11T02:23:25.407Z,0
2017-07-11T02:24:34.329Z,0
2017-07-11T02:25:43.247Z,0
2017-07-11T02:26:52.162Z,0
2017-07-11T02:28:01.083Z,0
2017-07-11T02:29:10.001Z,0
2017-07-11T02:30:18.914Z,0
2017-07-11T02:31:27.833Z,0
2017-07-11T02:32:36.755Z,0
2017-07-11T02:33:45.673Z,4
2017-07-11T02:34:54.592Z,4
2017-07-11T02:36:03.513Z,0
2017-07-11T02:37:12.427Z,0
2017-07-11T02:38:21.338Z,4
2017-07-11T02:39:30.256Z,4
2017-07-11T02:40:39.170Z,4
2017-07-11T02:41:48.085Z,4
2017-07-11T02:42:57.008Z,8
2017-07-11T02:44:05.931Z,8
2017-07-11T02:45:15.179Z,8
2017-07-11T02:46:24.106Z,8
2017-07-11T02:47:33.028Z,8
2017-07-11T02:48:41.944Z,8
2017-07-11T02:49:50.860Z,12
2017-07-11T02:50:59.777Z,8
2017-07-11T02:52:08.696Z,8
2017-07-11T02:53:17.611Z,12
2017-07-11T02:54:26.532Z,12
2017-07-11T02:55:35.865Z,12
2017-07-11T02:56:44.781Z,12
2017-07-11T02:57:53.705Z,16
2017-07-11T02:59:02.959Z,16
2017-07-11T03:00:11.880Z,16
2017-07-11T03:01:20.798Z,16
2017-07-11T03:02:29.718Z,16
2017-07-11T03:03:38.636Z,20
2017-07-11T03:04:47.549Z,20
2017-07-11T03:05:56.471Z,20
2017-07-11T03:07:05.391Z,24
2017-07-11T03:08:14.309Z,28
2017-07-11T03:09:23.230Z,36
2017-07-11T03:10:32.153Z,44
2017-07-11T03:11:41.072Z,36
2017-07-11T03:12:49.992Z,44
2017-07-11T03:13:58.914Z,48
2017-07-11T03:15:07.839Z,52
2017-07-11T03:16:16.755Z,60
2017-07-11T03:17:25.678Z,60
2017-07-11T03:18:34.598Z,84
2017-07-11T03:19:43.597Z,80
2017-07-11T03:20:52.523Z,84
2017-07-11T03:22:01.444Z,84
2017-07-11T03:23:10.357Z,88
2017-07-11T03:24:19.282Z,104
2017-07-11T03:25:28.533Z,96
2017-07-11T03:26:37.455Z,96
2017-07-11T03:27:46.376Z,100
2017-07-11T03:28:55.299Z,92
2017-07-11T03:30:04.207Z,104
2017-07-11T03:31:13.126Z,88
2017-07-11T03:32:22.050Z,92
2017-07-11T03:33:30.968Z,124
2017-07-11T03:34:39.887Z,116
2017-07-11T03:35:48.805Z,124
2017-07-11T03:36:57.720Z,140
2017-07-11T03:38:06.719Z,132
2017-07-11T03:39:15.636Z,144
2017-07-11T03:40:24.562Z,180
2017-07-11T03:41:33.564Z,144
2017-07-11T03:42:42.482Z,180
2017-07-11T03:43:52.074Z,164
2017-07-11T03:45:00.993Z,184
2017-07-11T03:46:09.912Z,148
2017-07-11T03:47:19.137Z,176
2017-07-11T03:48:28.057Z,188
2017-07-11T03:49:36.983Z,148
2017-07-11T03:50:45.895Z,144
2017-07-11T03:51:54.811Z,148
2017-07-11T03:53:03.726Z,160
2017-07-11T03:54:12.643Z,156
2017-07-11T03:55:21.555Z,176
2017-07-11T03:56:30.803Z,204
2017-07-11T03:57:39.721Z,228
2017-07-11T03:58:48.646Z,244
2017-07-11T03:59:57.559Z,240
2017-07-11T04:01:06.483Z,252
2017-07-11T04:02:15.400Z,244
2017-07-11T04:03:24.319Z,264
2017-07-11T04:04:33.235Z,256
2017-07-11T04:05:42.149Z,256
2017-07-11T04:06:51.074Z,256
2017-07-11T04:07:59.989Z,256
2017-07-11T04:09:08.913Z,268
2017-07-11T04:10:17.829Z,316
2017-07-11T04:11:26.748Z,328
2017-07-11T04:12:35.661Z,308
2017-07-11T04:13:44.583Z,324
2017-07-11T04:14:53.499Z,344
2017-07-11T04:16:02.416Z,336
2017-07-11T04:17:11.330Z,336
2017-07-11T04:18:20.258Z,336
2017-07-11T04:19:29.184Z,272
2017-07-11T04:20:38.100Z,272
2017-07-11T04:21:47.022Z,312
2017-07-11T04:22:55.939Z,308
2017-07-11T04:24:04.854Z,324
2017-07-11T04:25:14.109Z,304
2017-07-11T04:26:23.032Z,304
2017-07-11T04:27:32.305Z,336
2017-07-11T04:28:41.228Z,372
2017-07-11T04:29:50.155Z,336
2017-07-11T04:30:59.074Z,432
2017-07-11T04:32:07.990Z,448
2017-07-11T04:33:16.911Z,484
2017-07-11T04:34:25.827Z,488
2017-07-11T04:35:34.747Z,512
2017-07-11T04:36:43.668Z,508
2017-07-11T04:37:52.584Z,556
2017-07-11T04:39:01.589Z,492
2017-07-11T04:40:10.504Z,444
2017-07-11T04:41:19.419Z,480
2017-07-11T04:42:28.335Z,496
2017-07-11T04:43:37.258Z,660
2017-07-11T04:44:46.178Z,676
2017-07-11T04:45:55.094Z,568
2017-07-11T04:47:04.102Z,580
2017-07-11T04:48:13.021Z,524
2017-07-11T04:49:21.939Z,532
2017-07-11T04:50:30.861Z,588
2017-07-11T04:51:39.778Z,708
2017-07-11T04:52:48.701Z,664
2017-07-11T04:53:57.615Z,536
2017-07-11T04:55:06.620Z,508
2017-07-11T04:56:15.623Z,464
2017-07-11T04:57:24.551Z,468
2017-07-11T04:58:33.469Z,544
2017-07-11T04:59:42.392Z,652
2017-07-11T05:00:51.316Z,644
2017-07-11T05:02:00.226Z,588
2017-07-11T05:03:09.230Z,736
2017-07-11T05:04:18.145Z,904
2017-07-11T05:05:27.062Z,904
2017-07-11T05:06:35.988Z,948
2017-07-11T05:07:44.907Z,992
2017-07-11T05:08:53.832Z,928
2017-07-11T05:10:02.754Z,1020
2017-07-11T05:11:11.675Z,924
2017-07-11T05:12:20.593Z,828
2017-07-11T05:13:29.509Z,852
2017-07-11T05:14:38.423Z,948
2017-07-11T05:15:47.346Z,1008
2017-07-11T05:16:56.275Z,1004
2017-07-11T05:18:05.192Z,1024
2017-07-11T05:19:14.202Z,1052
2017-07-11T05:20:23.118Z,1056
2017-07-11T05:21:32.119Z,1108
2017-07-11T05:22:41.034Z,1092
2017-07-11T05:23:49.953Z,1056
2017-07-11T05:24:58.866Z,1056
2017-07-11T05:26:07.785Z,1072
2017-07-11T05:27:16.782Z,1124
2017-07-11T05:28:25.701Z,1112
2017-07-11T05:29:34.704Z,1008
2017-07-11T05:30:43.621Z,980
2017-07-11T05:31:52.540Z,1032
2017-07-11T05:33:01.464Z,1040
2017-07-11T05:34:10.392Z,1088
2017-07-11T05:35:19.311Z,1124
2017-07-11T05:36:28.231Z,1152
2017-07-11T05:37:37.156Z,1184
2017-07-11T05:38:46.075Z,1228
2017-07-11T05:39:55.001Z,1260
2017-07-11T05:41:03.919Z,1276
2017-07-11T05:42:12.844Z,1300
2017-07-11T05:43:21.764Z,1292
2017-07-11T05:44:30.678Z,1340
2017-07-11T05:45:39.595Z,1324
2017-07-11T05:46:48.506Z,1328
2017-07-11T05:47:57.429Z,1348
2017-07-11T05:49:06.346Z,1340
2017-07-11T05:50:15.265Z,1320
2017-07-11T05:51:24.177Z,1324
2017-07-11T05:52:33.092Z,1324
2017-07-11T05:53:42.014Z,1344
2017-07-11T05:54:50.935Z,1348
2017-07-11T05:55:59.853Z,1364
2017-07-11T05:57:08.777Z,1380
2017-07-11T05:58:17.700Z,1444
2017-07-11T05:59:26.617Z,1448
2017-07-11T06:00:35.534Z,1440
2017-07-11T06:01:44.457Z,1428
2017-07-11T06:02:53.375Z,1448
2017-07-11T06:04:02.287Z,1464
2017-07-11T06:05:11.208Z,1488
2017-07-11T06:06:20.126Z,1464
2017-07-11T06:07:29.046Z,1432
2017-07-11T06:08:37.960Z,1452
2017-07-11T06:09:46.881Z,1416
2017-07-11T06:10:55.792Z,1520
2017-07-11T06:12:04.711Z,1480
2017-07-11T06:13:13.622Z,1520
2017-07-11T06:14:22.540Z,1608
2017-07-11T06:15:31.542Z,1576
2017-07-11T06:16:40.460Z,1588
2017-07-11T06:17:49.464Z,1580
2017-07-11T06:18:58.388Z,1552
2017-07-11T06:20:07.313Z,1540
2017-07-11T06:21:16.231Z,1512
2017-07-11T06:22:25.154Z,1488
2017-07-11T06:23:34.070Z,1440
2017-07-11T06:24:42.987Z,1424
2017-07-11T06:25:51.906Z,1396
2017-07-11T06:27:00.830Z,1404
2017-07-11T06:28:09.748Z,1396
2017-07-11T06:29:18.671Z,1396
2017-07-11T06:30:27.586Z,1404
2017-07-11T06:31:36.504Z,1424
2017-07-11T06:32:45.426Z,1432
2017-07-11T06:33:54.353Z,1492
2017-07-11T06:35:03.264Z,1524
2017-07-11T06:36:12.515Z,1520
2017-07-11T06:37:21.437Z,1552
2017-07-11T06:38:30.355Z,1552
2017-07-11T06:39:39.276Z,1564
2017-07-11T06:40:48.197Z,1584
2017-07-11T06:41:57.112Z,1636
2017-07-11T06:43:06.032Z,1656
2017-07-11T06:44:14.955Z,1616
2017-07-11T06:45:23.880Z,1556
2017-07-11T06:46:32.794Z,1468
2017-07-11T06:47:41.721Z,1508
2017-07-11T06:48:50.641Z,1572
2017-07-11T06:49:59.562Z,1496
2017-07-11T06:51:08.477Z,1524
2017-07-11T06:52:17.390Z,1624
2017-07-11T06:53:26.308Z,1620
2017-07-11T06:54:35.223Z,1556
2017-07-11T06:55:44.148Z,1572
2017-07-11T06:56:53.074Z,1596
2017-07-11T06:58:01.989Z,1624
2017-07-11T06:59:10.908Z,1616
2017-07-11T07:00:19.830Z,1540
2017-07-11T07:01:28.749Z,1552
2017-07-11T07:02:37.671Z,1612
2017-07-11T07:03:46.681Z,1600
2017-07-11T07:04:55.600Z,1632
2017-07-11T07:06:04.517Z,1612
2017-07-11T07:07:13.437Z,1584
2017-07-11T07:08:22.373Z,1548
2017-07-11T07:09:31.285Z,1524
2017-07-11T07:10:40.208Z,1544
2017-07-11T07:11:49.459Z,1596
2017-07-11T07:12:58.378Z,1572
2017-07-11T07:14:07.295Z,1468
2017-07-11T07:15:16.222Z,1364
2017-07-11T07:16:25.133Z,1316
2017-07-11T07:17:34.052Z,1236
2017-07-11T07:18:42.971Z,1220
2017-07-11T07:19:52.228Z,1216
2017-07-11T07:21:01.147Z,1304
2017-07-11T07:22:10.070Z,1308
2017-07-11T07:23:18.996Z,1412
2017-07-11T07:24:27.923Z,1496
2017-07-11T07:25:36.929Z,1652
2017-07-11T07:26:45.850Z,1824
2017-07-11T07:27:54.765Z,1840
2017-07-11T07:29:03.771Z,1852
2017-07-11T07:30:12.692Z,1788
2017-07-11T07:31:21.618Z,1624
2017-07-11T07:32:30.873Z,1588
2017-07-11T07:33:39.790Z,1576
2017-07-11T07:34:49.036Z,1584
2017-07-11T07:35:57.952Z,1556
2017-07-11T07:37:06.880Z,1612
2017-07-11T07:38:15.796Z,1692
2017-07-11T07:39:24.811Z,1696
2017-07-11T07:40:33.737Z,1656
2017-07-11T07:41:42.654Z,1612
2017-07-11T07:42:51.581Z,1580
2017-07-11T07:44:00.506Z,1568
2017-07-11T07:45:09.417Z,1584
2017-07-11T07:46:18.339Z,1608
2017-07-11T07:47:27.264Z,1648
2017-07-11T07:48:36.179Z,1716
2017-07-11T07:49:45.096Z,1764
2017-07-11T07:50:54.105Z,1816
2017-07-11T07:52:03.028Z,1808
2017-07-11T07:53:11.956Z,1788
2017-07-11T07:54:20.879Z,1816
2017-07-11T07:55:29.798Z,1840
2017-07-11T07:56:38.730Z,1992
2017-07-11T07:57:47.648Z,1996
2017-07-11T07:58:56.661Z,2044
2017-07-11T08:00:05.583Z,2104
2017-07-11T08:01:14.502Z,1988
2017-07-11T08:02:23.423Z,1988
2017-07-11T08:03:32.343Z,2276
2017-07-11T08:04:41.263Z,3048
2017-07-11T08:05:50.184Z,3068
2017-07-11T08:06:59.101Z,2560
2017-07-11T08:08:08.024Z,2184
2017-07-11T08:09:16.953Z,2168
2017-07-11T08:10:25.870Z,2592
2017-07-11T08:11:34.791Z,2728
2017-07-11T08:12:43.706Z,2716
2017-07-11T08:13:52.629Z,2664
2017-07-11T08:15:01.553Z,2620
2017-07-11T08:16:10.482Z,2772
2017-07-11T08:17:19.401Z,2836
2017-07-11T08:18:28.319Z,3040
2017-07-11T08:19:37.238Z,2988
2017-07-11T08:20:46.160Z,2900
2017-07-11T08:21:55.083Z,2848
2017-07-11T08:23:04.002Z,2652
2017-07-11T08:24:12.924Z,2676
2017-07-11T08:25:21.845Z,2592
2017-07-11T08:26:30.766Z,2536
2017-07-11T08:27:39.691Z,2484
2017-07-11T08:28:48.703Z,2748
2017-07-11T08:29:57.626Z,2860
2017-07-11T08:31:06.548Z,2840
2017-07-11T08:32:15.549Z,3124
2017-07-11T08:33:24.469Z,3132
2017-07-11T08:34:33.386Z,3024
2017-07-11T08:35:42.309Z,2804
2017-07-11T08:36:51.627Z,2764
2017-07-11T08:38:00.549Z,2880
2017-07-11T08:39:09.467Z,2672
2017-07-11T08:40:18.386Z,2924
2017-07-11T08:41:27.306Z,2828
2017-07-11T08:42:36.235Z,2928
2017-07-11T08:43:45.154Z,2900
2017-07-11T08:44:54.078Z,3144
2017-07-11T08:46:03.047Z,3232
2017-07-11T08:47:11.920Z,3336
2017-07-11T08:48:20.835Z,3184
2017-07-11T08:49:29.751Z,3020
2017-07-11T08:50:38.674Z,3208
2017-07-11T08:51:48.017Z,3288
2017-07-11T08:52:56.933Z,3400
2017-07-11T08:54:05.851Z,3052
2017-07-11T08:55:14.769Z,3128
2017-07-11T08:56:23.694Z,3036
2017-07-11T08:57:32.612Z,3336
2017-07-11T08:58:41.534Z,3716
2017-07-11T08:59:50.459Z,2628
2017-07-11T09:00:59.379Z,3120
2017-07-11T09:02:08.299Z,3224
2017-07-11T09:03:17.223Z,2948
2017-07-11T09:04:26.145Z,3184
2017-07-11T09:05:35.067Z,3920
2017-07-11T09:06:43.992Z,4128
2017-07-11T09:07:52.916Z,4632
2017-07-11T09:09:01.843Z,4316
2017-07-11T09:10:10.769Z,4280
2017-07-11T09:11:19.690Z,3768
2017-07-11T09:12:28.605Z,3488
2017-07-11T09:13:37.528Z,3316
2017-07-11T09:14:46.449Z,3472
2017-07-11T09:15:55.365Z,3076
2017-07-11T09:17:04.293Z,3292
2017-07-11T09:18:13.542Z,3272
2017-07-11T09:19:22.462Z,2852
2017-07-11T09:20:31.377Z,3576
2017-07-11T09:21:40.295Z,3512
2017-07-11T09:22:49.214Z,3692
2017-07-11T09:23:58.137Z,3764
2017-07-11T09:25:07.048Z,3708
2017-07-11T09:26:15.963Z,3800
2017-07-11T09:27:24.892Z,3828
2017-07-11T09:28:33.808Z,3808
2017-07-11T09:29:42.728Z,3264
2017-07-11T09:30:51.649Z,3276
2017-07-11T09:32:00.565Z,3716
2017-07-11T09:33:09.493Z,4280
2017-07-11T09:34:18.410Z,4952
2017-07-11T09:35:27.328Z,4656
2017-07-11T09:36:36.255Z,4596
2017-07-11T09:37:45.181Z,4624
2017-07-11T09:38:54.103Z,4532
2017-07-11T09:40:03.034Z,4136
2017-07-11T09:41:11.958Z,4072
2017-07-11T09:42:20.875Z,3440
2017-07-11T09:43:29.790Z,3072
2017-07-11T09:44:38.712Z,3644
2017-07-11T09:45:47.637Z,3512
2017-07-11T09:46:56.567Z,2944
2017-07-11T09:48:05.488Z,4092
2017-07-11T09:49:14.415Z,4308
2017-07-11T09:50:23.343Z,4260
2017-07-11T09:51:32.264Z,4636
2017-07-11T09:52:41.522Z,4488
2017-07-11T09:53:50.443Z,4548
2017-07-11T09:54:59.370Z,3940
2017-07-11T09:56:08.285Z,3404
2017-07-11T09:57:17.206Z,3976
2017-07-11T09:58:26.124Z,4412
2017-07-11T09:59:35.045Z,4356
2017-07-11T10:00:43.976Z,4092
2017-07-11T10:01:52.898Z,4352
2017-07-11T10:03:01.818Z,4252
2017-07-11T10:04:10.833Z,3760
2017-07-11T10:05:19.755Z,2736
2017-07-11T10:06:28.681Z,2352
2017-07-11T10:07:37.603Z,2800
2017-07-11T10:08:46.524Z,2984
2017-07-11T10:09:55.455Z,2616
2017-07-11T10:11:04.374Z,2444
2017-07-11T10:12:13.297Z,2408
2017-07-11T10:13:22.215Z,2496
2017-07-11T10:14:31.129Z,2748
2017-07-11T10:15:40.054Z,2952
2017-07-11T10:16:48.975Z,2920
2017-07-11T10:17:57.900Z,2904
2017-07-11T10:19:06.837Z,3072
2017-07-11T10:20:15.761Z,3216
2017-07-11T10:21:24.689Z,3244
2017-07-11T10:22:33.611Z,3168
2017-07-11T10:23:42.539Z,3088
2017-07-11T10:24:51.461Z,2936
2017-07-11T10:26:00.394Z,2964
2017-07-11T10:27:09.316Z,2980
2017-07-11T10:28:18.994Z,2916
2017-07-11T10:29:27.920Z,3068
2017-07-11T10:30:36.844Z,3108
2017-07-11T10:31:45.851Z,3076
2017-07-11T10:32:54.772Z,3076
2017-07-11T10:34:03.691Z,3060
2017-07-11T10:35:12.617Z,2888
2017-07-11T10:36:21.544Z,2892
2017-07-11T10:37:30.465Z,2768
2017-07-11T10:38:39.389Z,2900
2017-07-11T10:39:48.312Z,3032
2017-07-11T10:40:57.243Z,3056
2017-07-11T10:42:06.174Z,2944
2017-07-11T10:43:15.102Z,2808
2017-07-11T10:44:24.020Z,2636
2017-07-11T10:45:32.947Z,2340
2017-07-11T10:46:41.876Z,1976
2017-07-11T10:47:50.798Z,2080
2017-07-11T10:48:59.807Z,2368
2017-07-11T10:50:08.729Z,2468
2017-07-11T10:51:17.655Z,2568
2017-07-11T10:52:26.584Z,2508
2017-07-11T10:53:35.600Z,2536
2017-07-11T10:54:44.517Z,2428
2017-07-11T10:55:53.443Z,2364
2017-07-11T10:57:02.365Z,2432
2017-07-11T10:58:11.296Z,3004
2017-07-11T10:59:20.220Z,3080
2017-07-11T11:00:29.142Z,3220
2017-07-11T11:01:38.066Z,2940
2017-07-11T11:02:46.994Z,3504
2017-07-11T11:03:55.920Z,3472
2017-07-11T11:05:04.835Z,3240
2017-07-11T11:06:13.764Z,3060
2017-07-11T11:07:22.685Z,2880
2017-07-11T11:08:31.609Z,3032
2017-07-11T11:09:40.534Z,2828
2017-07-11T11:10:49.468Z,2728
2017-07-11T11:11:58.396Z,2768
2017-07-11T11:13:07.314Z,2540
2017-07-11T11:14:16.233Z,2652
2017-07-11T11:15:25.166Z,2428
2017-07-11T11:16:34.088Z,1804
2017-07-11T11:17:43.009Z,1960
2017-07-11T11:18:51.940Z,2160
2017-07-11T11:20:00.870Z,2824
2017-07-11T11:21:09.798Z,2840
2017-07-11T11:22:18.723Z,3540
2017-07-11T11:23:27.649Z,3620
2017-07-11T11:24:36.577Z,3276
2017-07-11T11:25:45.505Z,2964
2017-07-11T11:26:54.427Z,2548
2017-07-11T11:28:03.347Z,2784
2017-07-11T11:29:12.270Z,2072
2017-07-11T11:30:21.195Z,2784
2017-07-11T11:31:30.202Z,2304
2017-07-11T11:32:39.460Z,2320
2017-07-11T11:33:48.381Z,1848
2017-07-11T11:34:57.307Z,1852
2017-07-11T11:36:06.231Z,2076
2017-07-11T11:37:15.153Z,2596
2017-07-11T11:38:24.079Z,2800
2017-07-11T11:39:33.001Z,3132
2017-07-11T11:40:41.925Z,2584
2017-07-11T11:41:50.848Z,1940
2017-07-11T11:42:59.775Z,1960
2017-07-11T11:44:08.711Z,2084
2017-07-11T11:45:17.714Z,2020
2017-07-11T11:46:26.641Z,2148
2017-07-11T11:47:35.569Z,2416
2017-07-11T11:48:44.492Z,2796
2017-07-11T11:49:53.413Z,2520
2017-07-11T11:51:02.339Z,1940
2017-07-11T11:52:11.263Z,1796
2017-07-11T11:53:20.183Z,2164
2017-07-11T11:54:29.112Z,3056
2017-07-11T11:55:38.043Z,3432
2017-07-11T11:56:46.963Z,2700
2017-07-11T11:57:55.890Z,1724
2017-07-11T11:59:04.821Z,1652
2017-07-11T12:00:13.746Z,1724
2017-07-11T12:01:22.673Z,1916
2017-07-11T12:02:31.596Z,2484
2017-07-11T12:03:40.516Z,2620
2017-07-11T12:04:49.437Z,3212
2017-07-11T12:05:58.365Z,3556
2017-07-11T12:07:07.376Z,2856
2017-07-11T12:08:16.294Z,2780
2017-07-11T12:09:25.217Z,3364
2017-07-11T12:10:34.139Z,3004
2017-07-11T12:11:43.065Z,3248
2017-07-11T12:12:51.986Z,2508
2017-07-11T12:14:00.914Z,2504
2017-07-11T12:15:09.842Z,2888
2017-07-11T12:16:18.766Z,2852
2017-07-11T12:17:27.691Z,2696
2017-07-11T12:18:36.618Z,2480
2017-07-11T12:19:45.542Z,2708
2017-07-11T12:20:54.469Z,2772
2017-07-11T12:22:03.390Z,2304
2017-07-11T12:23:12.308Z,2608
2017-07-11T12:24:21.228Z,2844
2017-07-11T12:25:30.153Z,3112
2017-07-11T12:26:39.078Z,2728
2017-07-11T12:27:48.002Z,2096
2017-07-11T12:28:56.928Z,2676
2017-07-11T12:30:05.857Z,2508
2017-07-11T12:31:14.784Z,1720
2017-07-11T12:32:23.715Z,1916
2017-07-11T12:33:32.639Z,1952
2017-07-11T12:34:41.559Z,1632
2017-07-11T12:35:50.542Z,1800
2017-07-11T12:36:59.409Z,1960
2017-07-11T12:38:08.338Z,1548
2017-07-11T12:39:17.260Z,1816
2017-07-11T12:40:26.190Z,1768
2017-07-11T12:41:35.119Z,1796
2017-07-11T12:42:44.049Z,1784
2017-07-11T12:43:52.970Z,1648
2017-07-11T12:45:01.981Z,1560
2017-07-11T12:46:10.907Z,1892
2017-07-11T12:47:19.832Z,2188
2017-07-11T12:48:28.760Z,1992
2017-07-11T12:49:37.681Z,1892
2017-07-11T12:50:46.607Z,1880
2017-07-11T12:51:55.530Z,1808
2017-07-11T12:53:04.452Z,1804
2017-07-11T12:54:13.376Z,1984
2017-07-11T12:55:22.305Z,2088
2017-07-11T12:56:31.563Z,1796
2017-07-11T12:57:40.490Z,1696
2017-07-11T12:58:49.414Z,1764
2017-07-11T12:59:58.343Z,1708
2017-07-11T13:01:07.349Z,1764
2017-07-11T13:02:16.274Z,1428
2017-07-11T13:03:25.198Z,1376
2017-07-11T13:04:34.117Z,1252
2017-07-11T13:05:43.040Z,1472
2017-07-11T13:06:51.964Z,1560
2017-07-11T13:08:00.895Z,2596
2017-07-11T13:09:09.825Z,2856
2017-07-11T13:10:18.748Z,2184
2017-07-11T13:11:27.751Z,2064
2017-07-11T13:12:36.676Z,2140
2017-07-11T13:13:45.601Z,2428
2017-07-11T13:14:54.530Z,2104
2017-07-11T13:16:03.459Z,1648
2017-07-11T13:17:12.387Z,1844
2017-07-11T13:18:21.307Z,1760
2017-07-11T13:19:30.233Z,1996
2017-07-11T13:20:39.163Z,2960
2017-07-11T13:21:48.089Z,2820
2017-07-11T13:22:57.009Z,2284
2017-07-11T13:24:05.934Z,2140
2017-07-11T13:25:14.859Z,2032
2017-07-11T13:26:23.783Z,2152
2017-07-11T13:27:32.702Z,1728
2017-07-11T13:28:41.621Z,1904
2017-07-11T13:29:50.539Z,2108
2017-07-11T13:30:59.463Z,2400
2017-07-11T13:32:08.393Z,1672
2017-07-11T13:33:17.319Z,1608
2017-07-11T13:34:26.239Z,1308
2017-07-11T13:35:35.168Z,1232
2017-07-11T13:36:44.102Z,1152
2017-07-11T13:37:53.019Z,904
2017-07-11T13:39:01.952Z,692
2017-07-11T13:40:10.880Z,536
2017-07-11T13:41:19.804Z,532
2017-07-11T13:42:28.729Z,736
2017-07-11T13:43:37.659Z,964
2017-07-11T13:44:46.583Z,856
2017-07-11T13:45:55.506Z,1032
2017-07-11T13:47:04.433Z,1360
2017-07-11T13:48:13.352Z,1600
2017-07-11T13:49:22.277Z,1712
2017-07-11T13:50:31.286Z,1832
2017-07-11T13:51:40.208Z,1748
2017-07-11T13:52:49.128Z,1612
2017-07-11T13:53:58.052Z,1256
2017-07-11T13:55:06.976Z,1160
2017-07-11T13:56:15.900Z,1296
2017-07-11T13:57:24.840Z,1436
2017-07-11T13:58:33.763Z,1344
2017-07-11T13:59:42.678Z,1252
2017-07-11T14:00:51.605Z,1232
2017-07-11T14:02:00.531Z,1296
2017-07-11T14:03:09.464Z,1460
2017-07-11T14:04:18.393Z,1728
2017-07-11T14:05:27.315Z,1920
2017-07-11T14:06:36.239Z,1948
2017-07-11T14:07:45.158Z,1744
2017-07-11T14:08:54.075Z,1700
2017-07-11T14:10:02.994Z,1716
2017-07-11T14:11:11.924Z,2056
2017-07-11T14:12:20.849Z,1936
2017-07-11T14:13:29.770Z,1996
2017-07-11T14:14:38.699Z,1908
2017-07-11T14:15:47.704Z,1976
2017-07-11T14:16:56.630Z,1984
2017-07-11T14:18:05.558Z,1912
2017-07-11T14:19:14.477Z,2020
2017-07-11T14:20:23.477Z,1820
2017-07-11T14:21:32.401Z,1748
2017-07-11T14:22:41.322Z,1256
2017-07-11T14:23:50.248Z,1048
2017-07-11T14:24:59.174Z,920
2017-07-11T14:26:08.095Z,764
2017-07-11T14:27:17.021Z,680
2017-07-11T14:28:25.949Z,536
2017-07-11T14:29:34.870Z,416
2017-07-11T14:30:43.797Z,364
2017-07-11T14:31:52.719Z,348
2017-07-11T14:33:01.646Z,456
2017-07-11T14:34:10.575Z,624
2017-07-11T14:35:19.496Z,1264
2017-07-11T14:36:28.415Z,1516
2017-07-11T14:37:37.345Z,1976
2017-07-11T14:38:46.262Z,2812
2017-07-11T14:39:55.187Z,2836
2017-07-11T14:41:04.104Z,2600
2017-07-11T14:42:13.030Z,2488
2017-07-11T14:43:21.959Z,2248
2017-07-11T14:44:30.885Z,1988
2017-07-11T14:45:39.810Z,1728
2017-07-11T14:46:48.733Z,1520
2017-07-11T14:47:57.663Z,1412
2017-07-11T14:49:06.586Z,1328
2017-07-11T14:50:15.509Z,1316
2017-07-11T14:51:24.431Z,1240
2017-07-11T14:52:33.357Z,1164
2017-07-11T14:53:42.374Z,904
2017-07-11T14:54:51.295Z,1020
2017-07-11T14:56:00.217Z,1076
2017-07-11T14:57:09.229Z,1164
2017-07-11T14:58:18.151Z,1108
2017-07-11T14:59:27.068Z,1172
2017-07-11T15:00:35.989Z,1124
2017-07-11T15:01:44.915Z,1200
2017-07-11T15:02:53.846Z,1232
2017-07-11T15:04:02.854Z,1300
2017-07-11T15:05:11.777Z,1344
2017-07-11T15:06:20.759Z,1252
2017-07-11T15:07:29.621Z,1224
2017-07-11T15:08:38.541Z,1140
2017-07-11T15:09:47.468Z,1088
2017-07-11T15:10:56.399Z,1028
2017-07-11T15:12:05.332Z,872
2017-07-11T15:13:14.257Z,968
2017-07-11T15:14:23.185Z,888
2017-07-11T15:15:32.112Z,856
2017-07-11T15:16:41.033Z,812
2017-07-11T15:17:49.950Z,944
2017-07-11T15:18:58.871Z,936
2017-07-11T15:20:07.791Z,876
2017-07-11T15:21:16.713Z,960
2017-07-11T15:22:25.640Z,916
2017-07-11T15:23:34.559Z,884
2017-07-11T15:24:43.479Z,664
2017-07-11T15:25:52.401Z,648
2017-07-11T15:27:01.408Z,1008
2017-07-11T15:28:10.333Z,1088
2017-07-11T15:29:19.265Z,1092
2017-07-11T15:30:28.178Z,1076
2017-07-11T15:31:37.106Z,804
2017-07-11T15:32:46.036Z,640
2017-07-11T15:33:54.958Z,676
2017-07-11T15:35:03.875Z,748
2017-07-11T15:36:12.886Z,896
2017-07-11T15:37:21.810Z,804
2017-07-11T15:38:30.742Z,636
2017-07-11T15:39:39.663Z,628
2017-07-11T15:40:48.591Z,672
2017-07-11T15:41:57.510Z,684
2017-07-11T15:43:06.440Z,700